createdAt,value
2023-08-17T00:00:53.184Z,95266.78
2023-08-17T00:03:20.652Z,95271.03
2023-08-17T00:05:48.148Z,95273.66
2023-08-17T00:08:16.953Z,95281.53
2023-08-17T00:10:44.427Z,95282.38
2023-08-17T00:13:12.961Z,95273.66
2023-08-17T00:15:40.421Z,95276.28
2023-08-17T00:18:07.922Z,95271.03
2023-08-17T00:20:35.433Z,95272.84
2023-08-17T00:23:02.945Z,95277.28
2023-08-17T00:25:31.772Z,95275.63
2023-08-17T00:27:59.257Z,95276.47
2023-08-17T00:30:26.714Z,95277.28
2023-08-17T00:32:54.190Z,95273.84
2023-08-17T00:35:21.962Z,95274.66
2023-08-17T00:37:49.411Z,95273.84
2023-08-17T00:40:16.903Z,95276.47
2023-08-17T00:42:45.738Z,95270.38
2023-08-17T00:45:13.196Z,95264.97
2023-08-17T00:47:40.710Z,95270.22
2023-08-17T00:50:08.768Z,95275.50
2023-08-17T00:52:36.504Z,95278.28
2023-08-17T00:55:04.783Z,95280.91
2023-08-17T00:57:32.289Z,95280.06
2023-08-17T01:00:05.266Z,95269.56
2023-08-17T01:02:34.179Z,95268.75
2023-08-17T01:05:02.114Z,95267.09
2023-08-17T01:07:29.970Z,95261.84
2023-08-17T01:09:57.514Z,95264.47
2023-08-17T01:12:31.315Z,95263.66
2023-08-17T01:15:03.397Z,95261.84
2023-08-17T01:17:34.983Z,95264.47
2023-08-17T01:20:04.859Z,95252.34
2023-08-17T01:22:34.502Z,95258.38
2023-08-17T01:25:03.460Z,95258.38
2023-08-17T01:27:38.676Z,95268.13
2023-08-17T01:30:07.362Z,95269.09
2023-08-17T01:32:39.157Z,95271.72
2023-08-17T01:35:11.744Z,95267.44
2023-08-17T01:37:40.270Z,95267.44
2023-08-17T01:40:10.830Z,95262.19
2023-08-17T01:42:38.913Z,95254.28
2023-08-17T01:45:06.942Z,95255.13
2023-08-17T01:47:34.459Z,95248.06
2023-08-17T01:50:02.144Z,95252.50
2023-08-17T01:52:30.124Z,95259.56
2023-08-17T01:54:57.570Z,95250.69
2023-08-17T01:57:26.597Z,95244.44
2023-08-17T01:59:54.264Z,95246.25
2023-08-17T02:02:22.770Z,95244.44
2023-08-17T02:04:50.307Z,95250.69
2023-08-17T02:07:17.788Z,95250.69
2023-08-17T02:09:45.271Z,95248.88
2023-08-17T02:12:12.709Z,95237.53
2023-08-17T02:14:41.524Z,95242.78
2023-08-17T02:17:09.321Z,95239.19
2023-08-17T02:19:36.805Z,95230.47
2023-08-17T02:22:04.353Z,95228.66
2023-08-17T02:24:31.816Z,95235.72
2023-08-17T02:26:59.285Z,95245.41
2023-08-17T02:29:26.784Z,95244.59
2023-08-17T02:31:55.818Z,95246.41
2023-08-17T02:34:23.336Z,95249.84
2023-08-17T02:36:50.788Z,95235.88
2023-08-17T02:39:18.257Z,95240.16
2023-08-17T02:41:45.954Z,95234.91
2023-08-17T02:44:13.401Z,95233.09
2023-08-17T02:46:40.830Z,95233.09
2023-08-17T02:49:09.702Z,95227.00
2023-08-17T02:51:37.135Z,95227.84
2023-08-17T02:54:04.704Z,95238.34
2023-08-17T02:56:32.207Z,95244.44
2023-08-17T02:58:59.696Z,95245.22
2023-08-17T03:01:27.238Z,95242.78
2023-08-17T03:03:54.737Z,95240.16
2023-08-17T03:06:23.547Z,95237.69
2023-08-17T03:08:51.006Z,95242.94
2023-08-17T03:11:18.467Z,95245.56
2023-08-17T03:13:46.805Z,95245.56
2023-08-17T03:16:14.292Z,95234.22
2023-08-17T03:18:43.705Z,95250.00
2023-08-17T03:21:13.050Z,95242.13
2023-08-17T03:23:41.959Z,95239.50
2023-08-17T03:26:09.401Z,95246.56
2023-08-17T03:28:36.858Z,95242.31
2023-08-17T03:31:04.987Z,95248.34
2023-08-17T03:33:33.398Z,95242.94
2023-08-17T03:36:00.872Z,95242.13
2023-08-17T03:38:28.345Z,95238.50
2023-08-17T03:40:57.207Z,95242.94
2023-08-17T03:43:24.722Z,95237.69
2023-08-17T03:45:52.254Z,95235.88
2023-08-17T03:48:19.897Z,95238.50
2023-08-17T03:50:47.360Z,95240.97
2023-08-17T03:53:14.824Z,95252.50
2023-08-17T03:55:45.235Z,95248.88
2023-08-17T03:58:14.029Z,95247.06
2023-08-17T04:00:41.655Z,95244.59
2023-08-17T04:03:09.141Z,95248.88
2023-08-17T04:05:36.637Z,95245.41
2023-08-17T04:08:04.794Z,95256.78
2023-08-17T04:10:32.241Z,95254.13
2023-08-17T04:12:59.695Z,95263.84
2023-08-17T04:15:28.512Z,95257.75
2023-08-17T04:17:56.006Z,95267.44
2023-08-17T04:20:23.885Z,95263.00
2023-08-17T04:22:51.344Z,95269.91
2023-08-17T04:25:18.827Z,95263.66
2023-08-17T04:27:46.537Z,95270.56
2023-08-17T04:30:14.468Z,95267.09
2023-08-17T04:32:43.329Z,95272.38
2023-08-17T04:35:11.061Z,95273.38
2023-08-17T04:37:38.533Z,95276.81
2023-08-17T04:40:06.663Z,95268.91
2023-08-17T04:42:34.147Z,95274.03
2023-08-17T04:45:01.604Z,95277.63
2023-08-17T04:47:29.281Z,95282.06
2023-08-17T04:49:58.328Z,95285.53
2023-08-17T04:52:25.808Z,95296.06
2023-08-17T04:54:53.832Z,95291.63
2023-08-17T04:57:21.315Z,95289.81
2023-08-17T04:59:48.794Z,95286.34
2023-08-17T05:02:16.405Z,95297.69
2023-08-17T05:04:43.944Z,95288.16
2023-08-17T05:07:12.747Z,95289.81
2023-08-17T05:09:40.230Z,95282.72
2023-08-17T05:12:08.215Z,95286.16
2023-08-17T05:14:36.147Z,95287.81
2023-08-17T05:17:03.618Z,95281.53
2023-08-17T05:19:31.156Z,95285.81
2023-08-17T05:21:58.613Z,95295.19
2023-08-17T05:24:27.436Z,95288.13
2023-08-17T05:26:55.984Z,95284.47
2023-08-17T05:29:23.431Z,95290.38
2023-08-17T05:31:50.877Z,95294.66
2023-08-17T05:34:18.362Z,95292.81
2023-08-17T05:36:45.925Z,95290.88
2023-08-17T05:39:13.374Z,95296.94
2023-08-17T05:41:42.179Z,95295.13
2023-08-17T05:44:09.656Z,95294.13
2023-08-17T05:46:37.322Z,95299.41
2023-08-17T05:49:05.028Z,95301.84
2023-08-17T05:51:32.500Z,95304.47
2023-08-17T05:53:59.992Z,95303.47
2023-08-17T05:56:27.452Z,95286.69
2023-08-17T05:58:56.297Z,95291.97
2023-08-17T06:01:24.238Z,95292.41
2023-08-17T06:03:51.921Z,95295.88
2023-08-17T06:06:19.601Z,95295.72
2023-08-17T06:08:47.047Z,95300.97
2023-08-17T06:11:14.534Z,95293.88
2023-08-17T06:13:41.970Z,95297.53
2023-08-17T06:16:11.392Z,95305.25
2023-08-17T06:18:39.116Z,95303.63
2023-08-17T06:21:06.632Z,95300.97
2023-08-17T06:23:34.092Z,95299.34
2023-08-17T06:26:01.648Z,95305.41
2023-08-17T06:28:29.348Z,95300.78
2023-08-17T06:30:57.840Z,95306.06
2023-08-17T06:33:26.724Z,95299.97
2023-08-17T06:35:54.192Z,95301.13
2023-08-17T06:38:21.675Z,95304.59
2023-08-17T06:40:49.337Z,95298.34
2023-08-17T06:43:18.869Z,95294.91
2023-08-17T06:45:46.658Z,95297.53
2023-08-17T06:48:14.154Z,95297.53
2023-08-17T06:50:43.015Z,95294.91
2023-08-17T06:53:10.535Z,95290.47
2023-08-17T06:55:38.045Z,95294.38
2023-08-17T06:58:05.732Z,95290.38
2023-08-17T07:00:33.177Z,95298.47
2023-08-17T07:03:01.238Z,95301.09
2023-08-17T07:05:30.893Z,95297.63
2023-08-17T07:08:00.319Z,95297.63
2023-08-17T07:10:28.956Z,95308.16
2023-08-17T07:12:56.435Z,95303.88
2023-08-17T07:15:23.911Z,95302.25
2023-08-17T07:17:51.385Z,95306.53
2023-08-17T07:20:18.858Z,95309.34
2023-08-17T07:22:46.378Z,95305.06
2023-08-17T07:25:15.325Z,95302.59
2023-08-17T07:27:42.903Z,95308.69
2023-08-17T07:30:10.807Z,95310.50
2023-08-17T07:32:38.336Z,95311.50
2023-08-17T07:35:06.311Z,95312.31
2023-08-17T07:37:34.831Z,95312.50
2023-08-17T07:40:04.552Z,95307.22
2023-08-17T07:42:33.513Z,95313.47
2023-08-17T07:45:01.126Z,95309.03
2023-08-17T07:47:28.932Z,95313.47
2023-08-17T07:49:58.827Z,95316.09
2023-08-17T07:52:26.304Z,95317.94
2023-08-17T07:54:53.839Z,95314.47
2023-08-17T07:57:21.303Z,95311.84
2023-08-17T07:59:50.130Z,95324.19
2023-08-17T08:02:17.593Z,95308.41
2023-08-17T08:04:45.261Z,95312.69
2023-08-17T08:07:12.804Z,95305.94
2023-08-17T08:09:40.291Z,95303.31
2023-08-17T08:12:08.912Z,95304.13
2023-08-17T08:14:36.422Z,95305.13
2023-08-17T08:17:05.275Z,95305.13
2023-08-17T08:19:33.954Z,95302.50
2023-08-17T08:22:02.413Z,95293.78
2023-08-17T08:24:37.893Z,95299.03
2023-08-17T08:27:06.713Z,95299.84
2023-08-17T08:29:34.893Z,95299.22
2023-08-17T08:32:03.909Z,95296.59
2023-08-17T08:34:32.772Z,95300.03
2023-08-17T08:37:00.226Z,95297.41
2023-08-17T08:39:27.924Z,95303.47
2023-08-17T08:41:55.831Z,95302.69
2023-08-17T08:44:23.588Z,95305.31
2023-08-17T08:46:51.060Z,95301.66
2023-08-17T08:49:21.920Z,95300.03
2023-08-17T08:51:53.119Z,95303.47
2023-08-17T08:54:23.452Z,95301.84
2023-08-17T08:56:53.644Z,95304.47
2023-08-17T08:59:21.377Z,95300.03
2023-08-17T09:01:50.693Z,95301.84
2023-08-17T09:04:19.215Z,95303.47
2023-08-17T09:06:47.403Z,95299.22
2023-08-17T09:09:16.971Z,95294.78
2023-08-17T09:11:45.133Z,95291.31
2023-08-17T09:14:12.944Z,95304.28
2023-08-17T09:16:40.709Z,95292.94
2023-08-17T09:19:08.556Z,95290.50
2023-08-17T09:21:36.012Z,95290.50
2023-08-17T09:24:03.498Z,95291.31
2023-08-17T09:26:34.425Z,95287.88
2023-08-17T09:29:03.168Z,95287.03
2023-08-17T09:31:32.781Z,95285.22
2023-08-17T09:34:00.261Z,95279.97
2023-08-17T09:36:28.334Z,95280.16
2023-08-17T09:38:57.645Z,95275.72
2023-08-17T09:41:27.809Z,95278.50
2023-08-17T09:43:57.728Z,95272.25
2023-08-17T09:46:27.385Z,95273.25
2023-08-17T09:48:55.487Z,95272.25
2023-08-17T09:51:23.114Z,95271.44
2023-08-17T09:56:28.856Z,95266.19
2023-08-17T09:58:57.750Z,95267.00
2023-08-17T10:01:25.731Z,95265.34
2023-08-17T10:03:54.891Z,95267.19
2023-08-17T10:06:27.670Z,95260.09
2023-08-17T10:08:57.611Z,95267.97
2023-08-17T10:11:25.537Z,95267.97
2023-08-17T10:13:53.890Z,95262.72
2023-08-17T10:16:30.367Z,95267.97
2023-08-17T10:19:01.287Z,95261.91
2023-08-17T10:21:29.838Z,95267.19
2023-08-17T10:23:57.392Z,95263.53
2023-08-17T10:26:25.553Z,95262.72
2023-08-17T10:28:54.186Z,95262.72
2023-08-17T10:31:22.248Z,95267.97
2023-08-17T10:33:52.178Z,95264.56
2023-08-17T10:36:20.425Z,95267.97
2023-08-17T10:38:47.919Z,95266.19
2023-08-17T10:41:18.702Z,95265.34
2023-08-17T10:43:56.064Z,95266.19
2023-08-17T10:46:23.931Z,95262.72
2023-08-17T10:48:53.284Z,95259.28
2023-08-17T10:51:25.925Z,95262.72
2023-08-17T10:53:54.636Z,95267.97
2023-08-17T10:56:22.212Z,95255.84
2023-08-17T10:58:53.206Z,95255.84
2023-08-17T11:01:33.169Z,95256.66
2023-08-17T11:04:14.985Z,95254.03
2023-08-17T11:06:44.055Z,95255.00
2023-08-17T11:09:12.794Z,95255.00
2023-08-17T11:11:40.395Z,95249.75
2023-08-17T11:14:08.034Z,95247.94
2023-08-17T11:16:35.553Z,95252.38
2023-08-17T11:19:03.039Z,95243.66
2023-08-17T11:21:32.148Z,95247.94
2023-08-17T11:23:59.914Z,95240.88
2023-08-17T11:26:28.704Z,95236.59
2023-08-17T11:28:56.212Z,95242.69
2023-08-17T11:31:23.878Z,95242.69
2023-08-17T11:33:55.762Z,95234.78
2023-08-17T11:36:24.865Z,95234.78
2023-08-17T11:38:54.379Z,95235.59
2023-08-17T11:41:21.840Z,95238.25
2023-08-17T11:43:49.556Z,95232.97
2023-08-17T11:46:17.545Z,95224.06
2023-08-17T11:48:45.188Z,95219.00
2023-08-17T11:51:13.078Z,95223.25
2023-08-17T11:53:41.208Z,95221.44
2023-08-17T11:56:11.290Z,95217.97
2023-08-17T11:58:42.359Z,95207.44
2023-08-17T12:01:11.245Z,95202.38
2023-08-17T12:03:38.913Z,95201.41
2023-08-17T12:06:06.947Z,95212.72
2023-08-17T12:08:35.519Z,95202.19
2023-08-17T12:11:04.078Z,95203.00
2023-08-17T12:13:33.957Z,95196.13
2023-08-17T12:16:01.803Z,95201.41
2023-08-17T12:18:29.298Z,95192.50
2023-08-17T12:20:57.280Z,95186.41
2023-08-17T12:23:24.830Z,95182.97
2023-08-17T12:25:55.893Z,95182.78
2023-08-17T12:28:24.071Z,95181.97
2023-08-17T12:31:00.467Z,95175.88
2023-08-17T12:33:27.992Z,95167.97
2023-08-17T12:35:55.645Z,95160.91
2023-08-17T12:38:24.033Z,95159.09
2023-08-17T12:40:51.516Z,95159.09
2023-08-17T12:43:18.973Z,95157.41
2023-08-17T12:45:46.428Z,95160.81
2023-08-17T12:48:15.312Z,95160.28
2023-08-17T12:50:44.532Z,95162.22
2023-08-17T12:53:12.210Z,95158.78
2023-08-17T12:55:39.840Z,95146.59
2023-08-17T12:58:09.442Z,95156.66
2023-08-17T13:00:36.962Z,95154.13
2023-08-17T13:03:04.610Z,95150.50
2023-08-17T13:05:34.917Z,95156.59
2023-08-17T13:08:02.541Z,95146.25
2023-08-17T13:10:30.619Z,95147.59
2023-08-17T13:13:00.372Z,95149.06
2023-08-17T13:15:28.076Z,95143.81
2023-08-17T13:17:55.594Z,95138.97
2023-08-17T13:20:23.116Z,95133.72
2023-08-17T13:22:51.942Z,95142.50
2023-08-17T13:25:19.728Z,95138.06
2023-08-17T13:27:47.197Z,95137.81
2023-08-17T13:30:14.753Z,95138.97
2023-08-17T13:32:44.161Z,95138.16
2023-08-17T13:35:13.130Z,95137.97
2023-08-17T13:37:40.583Z,95135.31
2023-08-17T13:40:10.313Z,95132.88
2023-08-17T13:42:37.988Z,95139.78
2023-08-17T13:45:05.713Z,95130.44
2023-08-17T13:47:33.210Z,95136.69
2023-08-17T13:50:00.705Z,95133.06
2023-08-17T13:52:28.486Z,95146.41
2023-08-17T13:54:56.275Z,95141.97
2023-08-17T13:57:25.103Z,95134.88
2023-08-17T13:59:53.515Z,95135.03
2023-08-17T14:02:21.331Z,95125.53
2023-08-17T14:04:48.771Z,95127.97
2023-08-17T14:07:16.236Z,95133.25
2023-08-17T14:09:54.381Z,95124.34
2023-08-17T14:12:30.950Z,95127.97
2023-08-17T14:14:58.440Z,95121.72
2023-08-17T14:17:25.887Z,95117.44
2023-08-17T14:19:53.360Z,95114.00
2023-08-17T14:22:20.820Z,95107.94
2023-08-17T14:24:48.261Z,95103.47
2023-08-17T14:27:15.749Z,95092.16
2023-08-17T14:29:47.909Z,95092.16
2023-08-17T14:32:16.099Z,95102.66
2023-08-17T14:34:43.539Z,95100.03
2023-08-17T14:37:10.999Z,95103.66
2023-08-17T14:39:38.469Z,95092.94
2023-08-17T14:42:06.608Z,95090.31
2023-08-17T14:44:34.200Z,95092.94
2023-08-17T14:47:02.982Z,95089.50
2023-08-17T14:49:31.085Z,95091.94
2023-08-17T14:51:58.579Z,95098.38
2023-08-17T14:54:26.516Z,95090.31
2023-08-17T14:56:57.123Z,95087.03
2023-08-17T14:59:24.868Z,95093.94
2023-08-17T15:01:53.700Z,95094.78
2023-08-17T15:04:25.874Z,95092.50
2023-08-17T15:06:53.791Z,95100.19
2023-08-17T15:09:21.378Z,95106.28
2023-08-17T15:11:49.489Z,95108.09
2023-08-17T15:14:17.008Z,95116.81
2023-08-17T15:16:44.507Z,95110.72
2023-08-17T15:19:11.971Z,95120.47
2023-08-17T15:21:40.804Z,95130.78
2023-08-17T15:24:08.283Z,95129.97
2023-08-17T15:26:35.736Z,95138.50
2023-08-17T15:29:03.256Z,95131.63
2023-08-17T15:31:30.717Z,95137.88
2023-08-17T15:33:58.199Z,95140.31
2023-08-17T15:36:27.578Z,95136.88
2023-08-17T15:38:56.384Z,95146.59
2023-08-17T15:41:23.835Z,95151.03
2023-08-17T15:43:51.357Z,95149.41
2023-08-17T15:46:18.859Z,95150.13
2023-08-17T15:48:46.367Z,95140.97
2023-08-17T15:51:13.839Z,95136.16
2023-08-17T15:53:44.531Z,95144.25
2023-08-17T15:56:13.495Z,95133.06
2023-08-17T15:58:41.972Z,95124.16
2023-08-17T16:01:09.606Z,95133.06
2023-08-17T16:03:37.417Z,95126.16
2023-08-17T16:06:04.967Z,95137.31
2023-08-17T16:08:47.279Z,95139.97
2023-08-17T16:11:17.305Z,95157.56
2023-08-17T16:13:46.567Z,95176.81
2023-08-17T16:16:14.345Z,95195.88
2023-08-17T16:18:42.023Z,95216.28
2023-08-17T16:23:40.058Z,95233.88
2023-08-17T16:26:07.541Z,95234.88
2023-08-17T16:28:36.338Z,95246.88
2023-08-17T16:31:05.709Z,95274.38
2023-08-17T16:33:33.343Z,95296.06
2023-08-17T16:36:00.874Z,95313.84
2023-08-17T16:38:28.333Z,95327.00
2023-08-17T16:40:55.797Z,95333.09
2023-08-17T16:43:23.624Z,95349.88
2023-08-17T16:45:53.259Z,95361.22
2023-08-17T16:48:24.656Z,95365.66
2023-08-17T16:50:52.451Z,95387.53
2023-08-17T16:53:20.346Z,95389.53
2023-08-17T16:55:54.494Z,95387.53
2023-08-17T16:58:22.778Z,95385.88
2023-08-17T17:00:50.300Z,95388.38
2023-08-17T17:03:19.130Z,95391.00
2023-08-17T17:05:46.666Z,95382.44
2023-08-17T17:08:16.780Z,95385.06
2023-08-17T17:10:44.248Z,95392.16
2023-08-17T17:13:11.755Z,95394.78
2023-08-17T17:15:39.361Z,95394.59
2023-08-17T17:18:07.268Z,95382.44
2023-08-17T17:20:36.243Z,95388.50
2023-08-17T17:23:03.829Z,95383.88
2023-08-17T17:25:31.318Z,95374.38
2023-08-17T17:27:58.803Z,95373.38
2023-08-17T17:30:26.243Z,95373.56
2023-08-17T17:32:53.838Z,95376.81
2023-08-17T17:35:21.382Z,95373.22
2023-08-17T17:37:50.230Z,95368.09
2023-08-17T17:40:17.735Z,95367.13
2023-08-17T17:42:45.311Z,95356.59
2023-08-17T17:45:12.793Z,95363.47
2023-08-17T17:47:40.283Z,95352.16
2023-08-17T17:50:08.572Z,95358.22
2023-08-17T17:52:36.051Z,95356.59
2023-08-17T17:55:05.074Z,95356.41
2023-08-17T17:57:34.372Z,95355.59
2023-08-17T18:00:01.873Z,95357.41
2023-08-17T18:02:31.671Z,95352.94
2023-08-17T18:04:59.287Z,95361.03
2023-08-17T18:07:27.035Z,95373.22
2023-08-17T18:09:56.975Z,95381.09
2023-08-17T18:12:28.888Z,95384.72
2023-08-17T18:14:57.772Z,95379.47
2023-08-17T18:17:25.323Z,95390.81
2023-08-17T18:19:52.855Z,95401.34
2023-08-17T18:22:22.179Z,95397.88
2023-08-17T18:24:51.337Z,95405.78
2023-08-17T18:27:18.795Z,95407.59
2023-08-17T18:29:47.633Z,95411.22
2023-08-17T18:32:15.156Z,95421.56
2023-08-17T18:34:42.696Z,95433.09
2023-08-17T18:37:10.165Z,95443.63
2023-08-17T18:39:38.008Z,95453.34
2023-08-17T18:42:05.749Z,95491.81
2023-08-17T18:44:33.239Z,95518.13
2023-08-17T18:47:03.722Z,95527.69
2023-08-17T18:49:31.207Z,95521.59
2023-08-17T18:51:58.648Z,95509.25
2023-08-17T18:54:26.158Z,95493.47
2023-08-17T18:56:53.608Z,95488.19
2023-08-17T18:59:21.095Z,95483.75
2023-08-17T19:01:48.682Z,95493.47
2023-08-17T19:04:17.586Z,95500.34
2023-08-17T19:06:45.258Z,95495.09
2023-08-17T19:09:12.934Z,95494.28
2023-08-17T19:11:40.423Z,95491.66
2023-08-17T19:14:08.742Z,95487.03
2023-08-17T19:16:36.308Z,95493.13
2023-08-17T19:19:04.429Z,95483.41
2023-08-17T19:21:33.269Z,95474.69
2023-08-17T19:24:00.803Z,95475.69
2023-08-17T19:26:28.715Z,95471.25
2023-08-17T19:28:56.155Z,95470.41
2023-08-17T19:31:23.727Z,95475.69
2023-08-17T19:33:51.253Z,95468.59
2023-08-17T19:36:18.735Z,95465.97
2023-08-17T19:38:47.579Z,95468.59
2023-08-17T19:41:15.962Z,95465.16
2023-08-17T19:43:43.418Z,95469.44
2023-08-17T19:46:10.958Z,95471.25
2023-08-17T19:48:38.955Z,95465.16
2023-08-17T19:51:07.355Z,95459.88
2023-08-17T19:53:34.882Z,95457.44
2023-08-17T19:56:04.039Z,95454.81
2023-08-17T19:58:31.501Z,95452.97
2023-08-17T20:01:05.600Z,95460.06
2023-08-17T20:03:33.187Z,95456.59
2023-08-17T20:06:01.545Z,95457.59
2023-08-17T20:08:29.103Z,95460.06
2023-08-17T20:10:56.904Z,95442.63
2023-08-17T20:13:25.734Z,95444.28
2023-08-17T20:15:55.038Z,95439.66
2023-08-17T20:18:22.841Z,95436.84
2023-08-17T20:20:51.068Z,95453.47
2023-08-17T20:23:20.145Z,95440.31
2023-08-17T20:25:49.611Z,95451.66
2023-08-17T20:28:17.655Z,95440.47
2023-08-17T20:30:46.799Z,95432.59
2023-08-17T20:33:14.603Z,95441.28
2023-08-17T20:35:42.400Z,95437.03
2023-08-17T20:38:10.084Z,95439.66
2023-08-17T20:40:37.722Z,95443.44
2023-08-17T20:43:06.482Z,95445.06
2023-08-17T20:45:34.221Z,95445.25
2023-08-17T20:48:03.251Z,95450.53
2023-08-17T20:50:30.792Z,95448.72
2023-08-17T20:52:58.304Z,95452.63
2023-08-17T20:55:25.875Z,95449.34
2023-08-17T20:57:53.366Z,95446.53
2023-08-17T21:00:21.386Z,95452.81
2023-08-17T21:02:49.095Z,95452.81
2023-08-17T21:05:18.183Z,95453.78
2023-08-17T21:07:45.647Z,95456.44
2023-08-17T21:10:13.444Z,95458.22
2023-08-17T21:12:40.942Z,95467.78
2023-08-17T21:15:08.938Z,95469.78
2023-08-17T21:17:36.425Z,95473.22
2023-08-17T21:20:05.375Z,95475.03
2023-08-17T21:22:34.253Z,95468.94
2023-08-17T21:25:01.778Z,95469.94
2023-08-17T21:27:29.633Z,95464.69
2023-08-17T21:29:57.340Z,95449.88
2023-08-17T21:32:24.852Z,95442.81
2023-08-17T21:34:52.424Z,95435.72
2023-08-17T21:37:27.101Z,95440.16
2023-08-17T21:39:56.412Z,95433.25
2023-08-17T21:42:23.944Z,95434.09
2023-08-17T21:44:52.207Z,95432.09
2023-08-17T21:47:19.712Z,95433.09
2023-08-17T21:49:47.993Z,95441.16
2023-08-17T21:52:15.719Z,95441.16
2023-08-17T21:54:43.506Z,95433.25
2023-08-17T21:57:12.452Z,95438.50
2023-08-17T21:59:39.993Z,95450.84
2023-08-17T22:02:08.761Z,95447.25
2023-08-17T22:04:37.380Z,95442.97
2023-08-17T22:07:05.017Z,95432.44
2023-08-17T22:09:34.312Z,95441.97
2023-08-17T22:12:02.006Z,95436.72
2023-08-17T22:14:31.277Z,95440.94
2023-08-17T22:16:58.790Z,95438.19
2023-08-17T22:19:26.888Z,95438.19
2023-08-17T22:21:54.565Z,95427.00
2023-08-17T22:24:22.065Z,95425.22
2023-08-17T22:26:49.594Z,95423.56
2023-08-17T22:29:17.080Z,95423.56
2023-08-17T22:31:45.910Z,95428.81
2023-08-17T22:34:14.622Z,95429.66
2023-08-17T22:36:42.098Z,95441.97
2023-08-17T22:39:09.590Z,95434.09
2023-08-17T22:41:38.199Z,95442.81
2023-08-17T22:44:06.045Z,95443.63
2023-08-17T22:46:33.586Z,95441.16
2023-08-17T22:49:02.464Z,95448.06
2023-08-17T22:51:30.072Z,95444.59
2023-08-17T22:53:57.837Z,95447.25
2023-08-17T22:56:25.340Z,95439.34
2023-08-17T22:58:52.790Z,95441.16
2023-08-17T23:01:20.329Z,95431.44
2023-08-17T23:03:47.870Z,95426.19
2023-08-17T23:06:16.721Z,95436.72
2023-08-17T23:08:44.187Z,95436.38
2023-08-17T23:11:11.726Z,95428.81
2023-08-17T23:13:39.230Z,95424.53
2023-08-17T23:16:06.788Z,95419.13
2023-08-17T23:18:34.351Z,95420.91
2023-08-17T23:21:01.968Z,95405.31
2023-08-17T23:23:30.800Z,95408.75
2023-08-17T23:25:58.367Z,95404.31
2023-08-17T23:28:25.898Z,95395.59
2023-08-17T23:30:53.396Z,95395.75
2023-08-17T23:33:20.887Z,95395.59
2023-08-17T23:35:48.362Z,95398.22
2023-08-17T23:38:15.808Z,95390.31
2023-08-17T23:40:44.650Z,95391.16
2023-08-17T23:43:12.378Z,95388.69
2023-08-17T23:45:39.928Z,95387.69
2023-08-17T23:48:08.232Z,95385.06
2023-08-17T23:50:35.720Z,95379.78
2023-08-17T23:53:03.184Z,95380.63
2023-08-17T23:55:30.737Z,95377.16
2023-08-17T23:57:59.822Z,95378.16
